sensor_id;sensor_type;location;lat;lon;timestamp;pressure;altitude;pressure_sealevel;temperature;humidity
7918;BME280;4004;42.624;23.386;2022-09-09T00:00:12;94396.56;;;18.34;100.00
7918;BME280;4004;42.624;23.386;2022-09-09T00:02:45;94398.91;;;18.35;100.00
7918;BME280;4004;42.624;23.386;2022-09-09T00:05:20;94392.78;;;18.13;100.00
7918;BME280;4004;42.624;23.386;2022-09-09T00:07:53;94385.44;;;18.10;100.00
7918;BME280;4004;42.624;23.386;2022-09-09T00:10:26;94390.84;;;18.14;100.00
7918;BME280;4004;42.624;23.386;2022-09-09T00:12:58;94375.41;;;17.89;100.00
7918;BME280;4004;42.624;23.386;2022-09-09T00:15:30;94388.28;;;17.81;100.00
7918;BME280;4004;42.624;23.386;2022-09-09T00:18:07;94400.72;;;17.75;100.00
7918;BME280;4004;42.624;23.386;2022-09-09T00:20:42;94398.03;;;17.68;100.00
7918;BME280;4004;42.624;23.386;2022-09-09T00:23:14;94396.09;;;17.61;100.00
7918;BME280;4004;42.624;23.386;2022-09-09T00:25:52;94380.97;;;17.53;100.00
7918;BME280;4004;42.624;23.386;2022-09-09T00:28:23;94382.16;;;17.49;100.00
7918;BME280;4004;42.624;23.386;2022-09-09T00:30:51;94367.78;;;17.45;100.00
7918;BME280;4004;42.624;23.386;2022-09-09T00:33:22;94358.13;;;17.36;100.00
7918;BME280;4004;42.624;23.386;2022-09-09T00:35:52;94368.97;;;17.44;100.00
7918;BME280;4004;42.624;23.386;2022-09-09T00:38:23;94369.41;;;17.28;100.00
7918;BME280;4004;42.624;23.386;2022-09-09T00:40:53;94359.72;;;17.23;100.00
7918;BME280;4004;42.624;23.386;2022-09-09T00:43:26;94355.84;;;17.10;100.00
7918;BME280;4004;42.624;23.386;2022-09-09T00:46:12;94348.84;;;17.16;100.00
7918;BME280;4004;42.624;23.386;2022-09-09T00:48:52;94342.63;;;17.19;100.00
7918;BME280;4004;42.624;23.386;2022-09-09T00:51:28;94340.72;;;17.02;100.00
7918;BME280;4004;42.624;23.386;2022-09-09T00:54:18;94346.56;;;16.96;100.00
7918;BME280;4004;42.624;23.386;2022-09-09T00:56:59;94313.19;;;16.71;100.00
7918;BME280;4004;42.624;23.386;2022-09-09T00:59:32;94354.72;;;16.96;100.00
7918;BME280;4004;42.624;23.386;2022-09-09T01:02:07;94353.53;;;16.97;100.00
7918;BME280;4004;42.624;23.386;2022-09-09T01:04:41;94351.22;;;17.03;100.00
7918;BME280;4004;42.624;23.386;2022-09-09T01:07:14;94355.06;;;17.02;100.00
7918;BME280;4004;42.624;23.386;2022-09-09T01:09:51;94345.78;;;16.92;100.00
7918;BME280;4004;42.624;23.386;2022-09-09T01:12:25;94350.84;;;16.83;100.00
7918;BME280;4004;42.624;23.386;2022-09-09T01:14:58;94352.34;;;16.73;100.00
7918;BME280;4004;42.624;23.386;2022-09-09T01:17:31;94348.50;;;16.74;100.00
7918;BME280;4004;42.624;23.386;2022-09-09T01:20:06;94351.97;;;16.64;100.00
7918;BME280;4004;42.624;23.386;2022-09-09T01:22:40;94334.13;;;16.49;100.00
7918;BME280;4004;42.624;23.386;2022-09-09T01:25:30;94357.78;;;16.63;100.00
7918;BME280;4004;42.624;23.386;2022-09-09T01:28:01;94353.94;;;16.56;100.00
7918;BME280;4004;42.624;23.386;2022-09-09T01:30:30;94357.41;;;16.53;100.00
7918;BME280;4004;42.624;23.386;2022-09-09T01:32:58;94341.88;;;16.54;100.00
7918;BME280;4004;42.624;23.386;2022-09-09T01:35:37;94341.13;;;16.68;100.00
7918;BME280;4004;42.624;23.386;2022-09-09T01:38:06;94345.81;;;16.85;100.00
7918;BME280;4004;42.624;23.386;2022-09-09T01:40:33;94353.16;;;16.88;100.00
7918;BME280;4004;42.624;23.386;2022-09-09T01:43:02;94368.66;;;16.91;100.00
7918;BME280;4004;42.624;23.386;2022-09-09T01:45:30;94363.22;;;16.91;100.00
7918;BME280;4004;42.624;23.386;2022-09-09T01:47:57;94369.03;;;17.01;100.00
7918;BME280;4004;42.624;23.386;2022-09-09T01:50:24;94350.44;;;16.88;100.00
7918;BME280;4004;42.624;23.386;2022-09-09T01:52:53;94374.88;;;17.06;100.00
7918;BME280;4004;42.624;23.386;2022-09-09T01:55:28;94371.38;;;17.02;100.00
7918;BME280;4004;42.624;23.386;2022-09-09T01:58:06;94372.91;;;17.10;100.00
7918;BME280;4004;42.624;23.386;2022-09-09T02:00:41;94372.91;;;17.10;100.00
7918;BME280;4004;42.624;23.386;2022-09-09T02:03:18;94380.69;;;17.08;100.00
7918;BME280;4004;42.624;23.386;2022-09-09T02:05:52;94378.34;;;17.14;100.00
7918;BME280;4004;42.624;23.386;2022-09-09T02:08:28;94372.16;;;17.10;100.00
7918;BME280;4004;42.624;23.386;2022-09-09T02:10:59;94372.13;;;17.13;100.00
7918;BME280;4004;42.624;23.386;2022-09-09T02:13:31;94348.88;;;16.94;100.00
7918;BME280;4004;42.624;23.386;2022-09-09T02:16:04;94366.72;;;17.03;100.00
7918;BME280;4004;42.624;23.386;2022-09-09T02:18:39;94377.19;;;17.04;100.00
7918;BME280;4004;42.624;23.386;2022-09-09T02:21:07;94367.50;;;17.03;100.00
7918;BME280;4004;42.624;23.386;2022-09-09T02:23:38;94365.19;;;16.94;100.00
7918;BME280;4004;42.624;23.386;2022-09-09T02:26:06;94313.19;;;16.49;100.00
7918;BME280;4004;42.624;23.386;2022-09-09T02:28:38;94348.50;;;16.64;100.00
7918;BME280;4004;42.624;23.386;2022-09-09T02:31:05;94343.81;;;16.53;100.00
7918;BME280;4004;42.624;23.386;2022-09-09T02:33:35;94346.56;;;16.50;100.00
7918;BME280;4004;42.624;23.386;2022-09-09T02:36:05;94335.69;;;16.46;100.00
7918;BME280;4004;42.624;23.386;2022-09-09T02:38:37;94351.97;;;16.57;100.00
7918;BME280;4004;42.624;23.386;2022-09-09T02:41:05;94353.91;;;16.60;100.00
7918;BME280;4004;42.624;23.386;2022-09-09T02:43:32;94346.53;;;16.61;100.00
7918;BME280;4004;42.624;23.386;2022-09-09T02:46:04;94347.72;;;16.52;100.00
7918;BME280;4004;42.624;23.386;2022-09-09T02:48:41;94357.00;;;16.62;100.00
7918;BME280;4004;42.624;23.386;2022-09-09T02:51:18;94362.84;;;16.57;100.00
7918;BME280;4004;42.624;23.386;2022-09-09T02:53:56;94367.47;;;16.60;100.00
7918;BME280;4004;42.624;23.386;2022-09-09T02:56:30;94378.75;;;16.58;100.00
7918;BME280;4004;42.624;23.386;2022-09-09T02:58:59;94365.94;;;16.63;100.00
7918;BME280;4004;42.624;23.386;2022-09-09T03:01:27;94359.72;;;16.73;100.00
7918;BME280;4004;42.624;23.386;2022-09-09T03:03:54;94357.00;;;16.69;100.00
7918;BME280;4004;42.624;23.386;2022-09-09T03:06:20;94357.81;;;16.70;100.00
7918;BME280;4004;42.624;23.386;2022-09-09T03:08:47;94360.53;;;16.81;100.00
7918;BME280;4004;42.624;23.386;2022-09-09T03:11:15;94361.66;;;16.76;100.00
7918;BME280;4004;42.624;23.386;2022-09-09T03:13:42;94368.69;;;16.84;100.00
7918;BME280;4004;42.624;23.386;2022-09-09T03:16:08;94339.16;;;16.65;100.00
7918;BME280;4004;42.624;23.386;2022-09-09T03:18:36;94372.16;;;16.88;100.00
7918;BME280;4004;42.624;23.386;2022-09-09T03:21:03;94371.38;;;16.91;100.00
7918;BME280;4004;42.624;23.386;2022-09-09T03:23:30;94374.09;;;16.91;100.00
7918;BME280;4004;42.624;23.386;2022-09-09T03:25:57;94371.75;;;17.01;100.00
7918;BME280;4004;42.624;23.386;2022-09-09T03:28:24;94335.28;;;16.69;100.00
7918;BME280;4004;42.624;23.386;2022-09-09T03:30:58;94372.53;;;16.97;100.00
7918;BME280;4004;42.624;23.386;2022-09-09T03:33:25;94372.94;;;16.99;100.00
7918;BME280;4004;42.624;23.386;2022-09-09T03:35:54;94369.81;;;16.97;100.00
7918;BME280;4004;42.624;23.386;2022-09-09T03:38:22;94376.03;;;16.98;100.00
7918;BME280;4004;42.624;23.386;2022-09-09T03:40:50;94371.75;;;16.93;100.00
7918;BME280;4004;42.624;23.386;2022-09-09T03:43:16;94375.25;;;16.94;100.00
7918;BME280;4004;42.624;23.386;2022-09-09T03:45:45;94364.41;;;16.90;100.00
7918;BME280;4004;42.624;23.386;2022-09-09T03:48:12;94365.94;;;16.91;100.00
7918;BME280;4004;42.624;23.386;2022-09-09T03:50:39;94365.97;;;16.88;100.00
7918;BME280;4004;42.624;23.386;2022-09-09T03:53:11;94369.84;;;16.90;100.00
7918;BME280;4004;42.624;23.386;2022-09-09T03:55:38;94374.88;;;16.88;100.00
7918;BME280;4004;42.624;23.386;2022-09-09T03:58:07;94367.53;;;16.85;100.00
7918;BME280;4004;42.624;23.386;2022-09-09T04:00:34;94373.31;;;16.87;100.00
7918;BME280;4004;42.624;23.386;2022-09-09T04:03:00;94376.41;;;16.89;100.00
7918;BME280;4004;42.624;23.386;2022-09-09T04:05:27;94376.44;;;16.93;100.00
7918;BME280;4004;42.624;23.386;2022-09-09T04:07:54;94379.13;;;17.04;100.00
7918;BME280;4004;42.624;23.386;2022-09-09T04:10:22;94386.88;;;17.09;100.00
7918;BME280;4004;42.624;23.386;2022-09-09T04:12:49;94384.94;;;17.16;100.00
7918;BME280;4004;42.624;23.386;2022-09-09T04:15:15;94389.19;;;17.25;100.00
7918;BME280;4004;42.624;23.386;2022-09-09T04:17:44;94382.19;;;17.34;100.00
7918;BME280;4004;42.624;23.386;2022-09-09T04:20:10;94365.88;;;17.42;100.00
7918;BME280;4004;42.624;23.386;2022-09-09T04:22:37;94377.41;;;17.67;100.00
7918;BME280;4004;42.624;23.386;2022-09-09T04:25:06;94365.34;;;17.72;100.00
7918;BME280;4004;42.624;23.386;2022-09-09T04:27:34;94377.38;;;17.78;100.00
7918;BME280;4004;42.624;23.386;2022-09-09T04:30:01;94379.66;;;18.01;100.00
7918;BME280;4004;42.624;23.386;2022-09-09T04:32:28;94376.50;;;18.06;100.00
7918;BME280;4004;42.624;23.386;2022-09-09T04:34:54;94382.56;;;18.32;99.47
7918;BME280;4004;42.624;23.386;2022-09-09T04:37:21;94377.69;;;18.64;96.15
7918;BME280;4004;42.624;23.386;2022-09-09T04:39:48;94384.72;;;19.14;92.70
7918;BME280;4004;42.624;23.386;2022-09-09T04:42:14;94391.56;;;19.71;87.67
7918;BME280;4004;42.624;23.386;2022-09-09T04:44:43;94393.44;;;20.12;84.31
7918;BME280;4004;42.624;23.386;2022-09-09T04:47:10;94400.41;;;20.13;81.77
7918;BME280;4004;42.624;23.386;2022-09-09T04:49:36;94407.47;;;19.76;83.86
7918;BME280;4004;42.624;23.386;2022-09-09T04:52:04;94394.66;;;19.32;85.58
7918;BME280;4004;42.624;23.386;2022-09-09T04:54:30;94386.72;;;19.07;88.04
7918;BME280;4004;42.624;23.386;2022-09-09T04:56:57;94379.78;;;18.98;89.64
7918;BME280;4004;42.624;23.386;2022-09-09T04:59:24;94382.00;;;19.14;89.21
7918;BME280;4004;42.624;23.386;2022-09-09T05:01:52;94372.84;;;19.73;85.90
7918;BME280;4004;42.624;23.386;2022-09-09T05:04:20;94375.09;;;20.40;81.83
7918;BME280;4004;42.624;23.386;2022-09-09T05:06:47;94375.34;;;21.03;76.55
7918;BME280;4004;42.624;23.386;2022-09-09T05:09:14;94370.97;;;21.53;72.74
7918;BME280;4004;42.624;23.386;2022-09-09T05:11:40;94367.31;;;21.60;70.74
7918;BME280;4004;42.624;23.386;2022-09-09T05:14:07;94332.75;;;21.26;70.14
7918;BME280;4004;42.624;23.386;2022-09-09T05:16:34;94362.84;;;21.26;71.17
7918;BME280;4004;42.624;23.386;2022-09-09T05:19:02;94368.06;;;21.17;71.58
7918;BME280;4004;42.624;23.386;2022-09-09T05:21:29;94379.69;;;21.21;71.45
7918;BME280;4004;42.624;23.386;2022-09-09T05:23:56;94378.63;;;21.38;71.03
7918;BME280;4004;42.624;23.386;2022-09-09T05:26:23;94374.09;;;21.51;69.61
7918;BME280;4004;42.624;23.386;2022-09-09T05:28:50;94361.44;;;21.61;69.63
7918;BME280;4004;42.624;23.386;2022-09-09T05:31:17;94371.88;;;21.46;69.82
7918;BME280;4004;42.624;23.386;2022-09-09T05:33:45;94364.00;;;21.48;69.46
7918;BME280;4004;42.624;23.386;2022-09-09T05:36:17;94365.28;;;21.44;70.02
7918;BME280;4004;42.624;23.386;2022-09-09T05:38:44;94363.03;;;21.59;68.09
7918;BME280;4004;42.624;23.386;2022-09-09T05:41:12;94360.03;;;21.73;67.06
7918;BME280;4004;42.624;23.386;2022-09-09T05:43:40;94362.47;;;21.87;65.47
7918;BME280;4004;42.624;23.386;2022-09-09T05:46:11;94361.19;;;22.12;64.50
7918;BME280;4004;42.624;23.386;2022-09-09T05:48:39;94360.28;;;22.55;63.46
7918;BME280;4004;42.624;23.386;2022-09-09T05:51:08;94374.09;;;23.01;60.94
7918;BME280;4004;42.624;23.386;2022-09-09T05:53:37;94389.09;;;23.29;59.16
7918;BME280;4004;42.624;23.386;2022-09-09T05:56:05;94376.03;;;23.78;56.13
7918;BME280;4004;42.624;23.386;2022-09-09T05:58:32;94368.75;;;24.14;54.88
7918;BME280;4004;42.624;23.386;2022-09-09T06:01:07;94374.53;;;24.32;53.47
7918;BME280;4004;42.624;23.386;2022-09-09T06:03:34;94364.47;;;24.55;52.75
7918;BME280;4004;42.624;23.386;2022-09-09T06:06:03;94382.16;;;24.79;51.30
7918;BME280;4004;42.624;23.386;2022-09-09T06:08:31;94396.50;;;25.35;49.74
7918;BME280;4004;42.624;23.386;2022-09-09T06:11:04;94383.63;;;25.67;48.23
7918;BME280;4004;42.624;23.386;2022-09-09T06:13:32;94405.63;;;25.79;47.64
7918;BME280;4004;42.624;23.386;2022-09-09T06:15:59;94407.19;;;26.24;46.42
7918;BME280;4004;42.624;23.386;2022-09-09T06:18:26;94397.22;;;26.80;45.11
7918;BME280;4004;42.624;23.386;2022-09-09T06:20:54;94383.69;;;27.14;43.56
7918;BME280;4004;42.624;23.386;2022-09-09T06:23:21;94389.28;;;26.92;43.90
7918;BME280;4004;42.624;23.386;2022-09-09T06:25:48;94392.25;;;27.06;43.49
7918;BME280;4004;42.624;23.386;2022-09-09T06:28:17;94394.78;;;27.32;43.26
7918;BME280;4004;42.624;23.386;2022-09-09T06:30:44;94402.03;;;27.66;42.92
7918;BME280;4004;42.624;23.386;2022-09-09T06:33:11;94389.00;;;28.13;42.27
7918;BME280;4004;42.624;23.386;2022-09-09T06:35:37;94392.31;;;28.54;41.46
7918;BME280;4004;42.624;23.386;2022-09-09T06:38:04;94390.19;;;28.49;41.26
7918;BME280;4004;42.624;23.386;2022-09-09T06:40:31;94388.47;;;28.42;40.98
7918;BME280;4004;42.624;23.386;2022-09-09T06:42:59;94389.09;;;28.56;40.54
7918;BME280;4004;42.624;23.386;2022-09-09T06:45:28;94383.78;;;28.76;40.33
7918;BME280;4004;42.624;23.386;2022-09-09T06:47:56;94379.75;;;28.86;40.38
7918;BME280;4004;42.624;23.386;2022-09-09T06:50:23;94392.78;;;29.28;39.70
7918;BME280;4004;42.624;23.386;2022-09-09T06:52:49;94386.44;;;29.37;38.84
7918;BME280;4004;42.624;23.386;2022-09-09T06:55:17;94398.28;;;29.38;38.95
7918;BME280;4004;42.624;23.386;2022-09-09T06:57:44;94401.78;;;29.14;38.88
7918;BME280;4004;42.624;23.386;2022-09-09T07:00:12;94399.94;;;28.78;39.46
7918;BME280;4004;42.624;23.386;2022-09-09T07:02:41;94404.31;;;28.93;39.38
7918;BME280;4004;42.624;23.386;2022-09-09T07:05:08;94410.44;;;28.64;39.30
7918;BME280;4004;42.624;23.386;2022-09-09T07:07:35;94402.84;;;28.74;39.56
7918;BME280;4004;42.624;23.386;2022-09-09T07:10:03;94400.22;;;28.80;39.73
7918;BME280;4004;42.624;23.386;2022-09-09T07:12:30;94404.44;;;28.57;40.02
7918;BME280;4004;42.624;23.386;2022-09-09T07:14:57;94409.63;;;28.73;39.90
7918;BME280;4004;42.624;23.386;2022-09-09T07:17:24;94399.38;;;28.98;39.22
7918;BME280;4004;42.624;23.386;2022-09-09T07:19:52;94401.03;;;29.04;39.53
7918;BME280;4004;42.624;23.386;2022-09-09T07:22:18;94399.28;;;28.83;39.39
7918;BME280;4004;42.624;23.386;2022-09-09T07:24:45;94396.72;;;28.70;39.14
7918;BME280;4004;42.624;23.386;2022-09-09T07:27:12;94392.53;;;28.75;39.63
7918;BME280;4004;42.624;23.386;2022-09-09T07:29:39;94388.41;;;28.79;39.81
7918;BME280;4004;42.624;23.386;2022-09-09T07:32:05;94394.22;;;28.81;39.68
7918;BME280;4004;42.624;23.386;2022-09-09T07:34:32;94390.06;;;28.86;39.56
7918;BME280;4004;42.624;23.386;2022-09-09T07:37:00;94378.56;;;28.78;39.44
7918;BME280;4004;42.624;23.386;2022-09-09T07:39:27;94382.19;;;28.93;39.61
7918;BME280;4004;42.624;23.386;2022-09-09T07:41:54;94383.28;;;28.87;39.81
7918;BME280;4004;42.624;23.386;2022-09-09T07:44:23;94391.56;;;28.54;40.38
7918;BME280;4004;42.624;23.386;2022-09-09T07:46:50;94404.31;;;28.42;40.11
7918;BME280;4004;42.624;23.386;2022-09-09T07:49:17;94395.88;;;28.36;40.24
7918;BME280;4004;42.624;23.386;2022-09-09T07:51:45;94394.97;;;28.39;40.11
7918;BME280;4004;42.624;23.386;2022-09-09T07:54:16;94402.25;;;28.70;39.62
7918;BME280;4004;42.624;23.386;2022-09-09T07:56:45;94400.31;;;28.52;40.09
7918;BME280;4004;42.624;23.386;2022-09-09T07:59:13;94397.72;;;28.39;39.97
7918;BME280;4004;42.624;23.386;2022-09-09T08:01:41;94392.66;;;28.38;40.26
7918;BME280;4004;42.624;23.386;2022-09-09T08:04:10;94388.72;;;28.72;39.56
7918;BME280;4004;42.624;23.386;2022-09-09T08:06:42;94387.97;;;29.05;39.18
7918;BME280;4004;42.624;23.386;2022-09-09T08:09:09;94391.09;;;29.31;38.26
7918;BME280;4004;42.624;23.386;2022-09-09T08:11:38;94403.88;;;29.77;37.59
7918;BME280;4004;42.624;23.386;2022-09-09T08:14:06;94396.50;;;29.73;37.41
7918;BME280;4004;42.624;23.386;2022-09-09T08:16:36;94397.78;;;29.63;37.77
7918;BME280;4004;42.624;23.386;2022-09-09T08:19:04;94397.53;;;29.28;38.32
7918;BME280;4004;42.624;23.386;2022-09-09T08:21:31;94395.56;;;28.95;38.73
7918;BME280;4004;42.624;23.386;2022-09-09T08:23:59;94382.19;;;28.51;39.35
7918;BME280;4004;42.624;23.386;2022-09-09T08:26:28;94393.72;;;28.31;39.62
7918;BME280;4004;42.624;23.386;2022-09-09T08:28:58;94382.41;;;28.10;39.68
7918;BME280;4004;42.624;23.386;2022-09-09T08:31:27;94392.56;;;27.95;40.27
7918;BME280;4004;42.624;23.386;2022-09-09T08:33:54;94385.78;;;28.05;39.82
7918;BME280;4004;42.624;23.386;2022-09-09T08:36:23;94382.28;;;27.96;40.11
7918;BME280;4004;42.624;23.386;2022-09-09T08:38:52;94382.13;;;27.99;40.04
7918;BME280;4004;42.624;23.386;2022-09-09T08:41:34;94391.59;;;28.26;39.92
7918;BME280;4004;42.624;23.386;2022-09-09T08:44:06;94384.84;;;28.18;39.87
7918;BME280;4004;42.624;23.386;2022-09-09T08:46:41;94389.91;;;28.10;39.79
7918;BME280;4004;42.624;23.386;2022-09-09T08:49:31;94381.47;;;28.14;39.82
7918;BME280;4004;42.624;23.386;2022-09-09T08:52:09;94390.56;;;27.96;40.17
7918;BME280;4004;42.624;23.386;2022-09-09T08:54:41;94382.56;;;27.98;40.23
7918;BME280;4004;42.624;23.386;2022-09-09T08:57:13;94385.19;;;27.92;40.15
7918;BME280;4004;42.624;23.386;2022-09-09T08:59:42;94374.28;;;27.88;40.24
7918;BME280;4004;42.624;23.386;2022-09-09T09:02:15;94373.03;;;27.62;41.02
7918;BME280;4004;42.624;23.386;2022-09-09T09:04:56;94374.41;;;27.39;41.22
7918;BME280;4004;42.624;23.386;2022-09-09T09:07:36;94376.56;;;27.72;40.79
7918;BME280;4004;42.624;23.386;2022-09-09T09:10:16;94370.47;;;27.86;40.45
7918;BME280;4004;42.624;23.386;2022-09-09T09:12:46;94377.19;;;27.76;40.63
7918;BME280;4004;42.624;23.386;2022-09-09T09:15:18;94375.66;;;27.93;40.50
7918;BME280;4004;42.624;23.386;2022-09-09T09:17:46;94379.16;;;28.12;40.36
7918;BME280;4004;42.624;23.386;2022-09-09T09:20:14;94378.50;;;28.36;39.93
7918;BME280;4004;42.624;23.386;2022-09-09T09:22:47;94373.44;;;28.52;39.78
7918;BME280;4004;42.624;23.386;2022-09-09T09:25:18;94355.59;;;28.54;39.47
7918;BME280;4004;42.624;23.386;2022-09-09T09:27:51;94368.94;;;28.64;39.33
7918;BME280;4004;42.624;23.386;2022-09-09T09:30:23;94330.69;;;28.54;39.46
7918;BME280;4004;42.624;23.386;2022-09-09T09:32:56;94380.25;;;28.76;39.17
7918;BME280;4004;42.624;23.386;2022-09-09T09:35:24;94374.84;;;28.81;39.29
7918;BME280;4004;42.624;23.386;2022-09-09T09:37:51;94375.09;;;28.92;39.00
7918;BME280;4004;42.624;23.386;2022-09-09T09:40:20;94370.03;;;28.91;38.88
7918;BME280;4004;42.624;23.386;2022-09-09T09:42:49;94374.47;;;28.98;38.63
7918;BME280;4004;42.624;23.386;2022-09-09T09:45:27;94373.72;;;28.88;39.20
7918;BME280;4004;42.624;23.386;2022-09-09T09:48:02;94361.72;;;28.58;39.24
7918;BME280;4004;42.624;23.386;2022-09-09T09:50:29;94361.47;;;28.28;40.08
7918;BME280;4004;42.624;23.386;2022-09-09T09:52:58;94354.00;;;28.19;40.58
7918;BME280;4004;42.624;23.386;2022-09-09T09:55:28;94348.16;;;28.17;40.29
7918;BME280;4004;42.624;23.386;2022-09-09T09:58:01;94345.84;;;28.16;40.09
7918;BME280;4004;42.624;23.386;2022-09-09T10:00:31;94338.19;;;27.83;40.76
7918;BME280;4004;42.624;23.386;2022-09-09T10:03:00;94344.34;;;27.68;41.48
7918;BME280;4004;42.624;23.386;2022-09-09T10:05:28;94348.66;;;27.60;41.88
7918;BME280;4004;42.624;23.386;2022-09-09T10:08:04;94344.81;;;27.58;41.59
7918;BME280;4004;42.624;23.386;2022-09-09T10:10:42;94342.97;;;27.73;41.50
7918;BME280;4004;42.624;23.386;2022-09-09T10:13:15;94342.19;;;27.82;41.23
7918;BME280;4004;42.624;23.386;2022-09-09T10:15:56;94345.72;;;27.82;41.71
7918;BME280;4004;42.624;23.386;2022-09-09T10:18:41;94347.72;;;28.00;41.14
7918;BME280;4004;42.624;23.386;2022-09-09T10:21:20;94347.72;;;27.82;41.32
7918;BME280;4004;42.624;23.386;2022-09-09T10:24:05;94356.28;;;27.75;41.42
7918;BME280;4004;42.624;23.386;2022-09-09T10:26:39;94352.63;;;27.78;41.43
7918;BME280;4004;42.624;23.386;2022-09-09T10:29:22;94354.16;;;27.69;41.83
7918;BME280;4004;42.624;23.386;2022-09-09T10:32:03;94351.09;;;27.67;42.34
7918;BME280;4004;42.624;23.386;2022-09-09T10:34:45;94355.41;;;27.68;42.78
7918;BME280;4004;42.624;23.386;2022-09-09T10:37:22;94349.25;;;27.64;42.03
7918;BME280;4004;42.624;23.386;2022-09-09T10:40:02;94354.78;;;27.83;42.00
7918;BME280;4004;42.624;23.386;2022-09-09T10:42:35;94354.19;;;27.97;41.83
7918;BME280;4004;42.624;23.386;2022-09-09T10:45:15;94352.47;;;27.81;41.89
7918;BME280;4004;42.624;23.386;2022-09-09T10:48:00;94344.19;;;27.72;42.00
7918;BME280;4004;42.624;23.386;2022-09-09T10:51:04;94361.22;;;27.70;42.38
7918;BME280;4004;42.624;23.386;2022-09-09T10:53:43;94361.53;;;27.73;42.48
7918;BME280;4004;42.624;23.386;2022-09-09T10:56:16;94353.41;;;27.69;42.52
7918;BME280;4004;42.624;23.386;2022-09-09T10:58:47;94342.81;;;27.67;42.75
7918;BME280;4004;42.624;23.386;2022-09-09T11:01:19;94354.47;;;27.72;42.60
7918;BME280;4004;42.624;23.386;2022-09-09T11:03:53;94354.47;;;27.72;42.82
7918;BME280;4004;42.624;23.386;2022-09-09T11:06:26;94358.63;;;27.67;42.85
7918;BME280;4004;42.624;23.386;2022-09-09T11:08:57;94363.06;;;27.64;42.97
7918;BME280;4004;42.624;23.386;2022-09-09T11:11:29;94360.91;;;27.50;43.69
7918;BME280;4004;42.624;23.386;2022-09-09T11:14:02;94353.53;;;27.28;43.81
7918;BME280;4004;42.624;23.386;2022-09-09T11:16:35;94356.25;;;27.19;43.94
7918;BME280;4004;42.624;23.386;2022-09-09T11:19:14;94363.59;;;27.13;43.99
7918;BME280;4004;42.624;23.386;2022-09-09T11:21:46;94356.22;;;27.10;43.98
7918;BME280;4004;42.624;23.386;2022-09-09T11:24:17;94333.22;;;27.04;44.24
7918;BME280;4004;42.624;23.386;2022-09-09T11:26:51;94352.88;;;27.15;44.04
7918;BME280;4004;42.624;23.386;2022-09-09T11:29:52;94340.06;;;27.31;43.76
7918;BME280;4004;42.624;23.386;2022-09-09T11:32:37;94312.81;;;26.92;44.35
7918;BME280;4004;42.624;23.386;2022-09-09T11:35:19;94330.38;;;27.26;44.02
7918;BME280;4004;42.624;23.386;2022-09-09T11:37:57;94318.91;;;27.46;43.67
7918;BME280;4004;42.624;23.386;2022-09-09T11:40:28;94303.53;;;27.36;43.76
7918;BME280;4004;42.624;23.386;2022-09-09T11:43:04;94313.00;;;27.16;44.45
7918;BME280;4004;42.624;23.386;2022-09-09T11:45:33;94313.44;;;26.96;44.90
7918;BME280;4004;42.624;23.386;2022-09-09T11:48:02;94307.75;;;26.81;45.12
7918;BME280;4004;42.624;23.386;2022-09-09T11:50:34;94298.25;;;26.82;45.33
7918;BME280;4004;42.624;23.386;2022-09-09T11:53:18;94285.50;;;26.85;45.86
7918;BME280;4004;42.624;23.386;2022-09-09T11:56:03;94273.72;;;26.84;45.92
7918;BME280;4004;42.624;23.386;2022-09-09T11:58:36;94266.53;;;26.87;45.74
7918;BME280;4004;42.624;23.386;2022-09-09T12:01:13;94252.22;;;26.70;46.10
7918;BME280;4004;42.624;23.386;2022-09-09T12:03:43;94268.50;;;26.77;46.20
7918;BME280;4004;42.624;23.386;2022-09-09T12:06:15;94266.97;;;26.76;46.12
7918;BME280;4004;42.624;23.386;2022-09-09T12:08:46;94268.81;;;26.79;46.21
7918;BME280;4004;42.624;23.386;2022-09-09T12:11:24;94281.88;;;27.06;45.52
7918;BME280;4004;42.624;23.386;2022-09-09T12:13:53;94272.38;;;27.17;45.16
7918;BME280;4004;42.624;23.386;2022-09-09T12:16:32;94276.50;;;27.12;45.02
7918;BME280;4004;42.624;23.386;2022-09-09T12:19:05;94266.09;;;27.07;45.34
7918;BME280;4004;42.624;23.386;2022-09-09T12:21:42;94265.16;;;27.10;45.13
7918;BME280;4004;42.624;23.386;2022-09-09T12:24:16;94261.06;;;27.24;44.98
7918;BME280;4004;42.624;23.386;2022-09-09T12:26:50;94258.44;;;27.39;44.66
7918;BME280;4004;42.624;23.386;2022-09-09T12:29:26;94255.97;;;27.50;44.43
7918;BME280;4004;42.624;23.386;2022-09-09T12:32:01;94258.59;;;27.44;44.45
7918;BME280;4004;42.624;23.386;2022-09-09T12:34:37;94248.16;;;27.48;44.33
7918;BME280;4004;42.624;23.386;2022-09-09T12:37:13;94242.66;;;27.30;45.15
7918;BME280;4004;42.624;23.386;2022-09-09T12:39:46;94249.56;;;27.25;45.77
7918;BME280;4004;42.624;23.386;2022-09-09T12:42:19;94247.25;;;27.33;45.24
7918;BME280;4004;42.624;23.386;2022-09-09T12:44:53;94234.81;;;27.19;45.76
7918;BME280;4004;42.624;23.386;2022-09-09T12:47:22;94237.28;;;27.08;45.86
7918;BME280;4004;42.624;23.386;2022-09-09T12:49:52;94237.09;;;27.12;45.82
7918;BME280;4004;42.624;23.386;2022-09-09T12:52:26;94236.66;;;27.13;45.99
7918;BME280;4004;42.624;23.386;2022-09-09T12:54:55;94232.34;;;27.12;46.11
7918;BME280;4004;42.624;23.386;2022-09-09T12:57:24;94239.13;;;27.29;45.69
7918;BME280;4004;42.624;23.386;2022-09-09T12:59:51;94235.91;;;27.40;46.03
7918;BME280;4004;42.624;23.386;2022-09-09T13:02:21;94226.53;;;27.47;45.67
7918;BME280;4004;42.624;23.386;2022-09-09T13:04:49;94224.50;;;27.57;45.14
7918;BME280;4004;42.624;23.386;2022-09-09T13:07:16;94221.63;;;27.51;44.96
7918;BME280;4004;42.624;23.386;2022-09-09T13:09:45;94213.31;;;27.60;44.66
7918;BME280;4004;42.624;23.386;2022-09-09T13:12:15;94208.44;;;27.37;44.92
7918;BME280;4004;42.624;23.386;2022-09-09T13:14:45;94209.09;;;27.22;45.35
7918;BME280;4004;42.624;23.386;2022-09-09T13:17:20;94200.31;;;27.05;45.62
7918;BME280;4004;42.624;23.386;2022-09-09T13:19:48;94201.25;;;26.93;45.87
7918;BME280;4004;42.624;23.386;2022-09-09T13:22:21;94203.56;;;26.95;46.26
7918;BME280;4004;42.624;23.386;2022-09-09T13:25:01;94199.88;;;26.88;46.62
7918;BME280;4004;42.624;23.386;2022-09-09T13:27:30;94206.13;;;26.98;47.19